Time;durP1;ratioP1;P1;durP2;ratioP2;P2;SDS_P1;SDS_P2;PMS_P1;PMS_P2;Temp;Humidity;BMP_temperature;BMP_pressure;BME280_temperature;BME280_humidity;BME280_pressure;Samples;Min_cycle;Max_cycle;Signal;HPM_P1;HPM_P2
2021/06/14 00:00:57;;;;;;;;;;;;;;;19.27;60.38;100472.91;5118757;28;1009;-44
2021/06/14 00:03:23;;;;;;;;;;;;;;;19.29;59.51;100470.66;5118692;28;1902;-44
2021/06/14 00:05:48;;;;;;;;;;;;;;;19.63;61.76;100478.66;5118799;28;731;-43
2021/06/14 00:08:15;;;;;;;;;;;;;;;20.20;60.27;100476.84;5117404;28;847;-44
2021/06/14 00:10:40;;;;;;;;;;;;;;;20.26;58.62;100478.38;5118789;28;771;-44
2021/06/14 00:13:06;;;;;;;;;;;;;;;20.26;58.36;100468.19;5118772;28;782;-43
2021/06/14 00:15:31;;;;;;;;;;;;;;;19.99;59.73;100460.66;5118360;28;957;-43
2021/06/14 00:17:57;;;;;;;;;;;;;;;19.49;61.33;100462.06;5117461;28;767;-44
2021/06/14 00:20:22;;;;;;;;;;;;;;;19.33;62.19;100466.16;5118319;28;747;-43
2021/06/14 00:22:48;;;;;;;;;;;;;;;19.21;59.60;100463.88;5118755;28;1913;-45
2021/06/14 00:25:15;;;;;;;;;;;;;;;19.71;59.65;100462.53;5116902;28;856;-43
2021/06/14 00:27:40;;;;;;;;;;;;;;;20.04;60.79;100462.53;5118329;28;827;-43
2021/06/14 00:30:06;;;;;;;;;;;;;;;20.30;60.53;100463.69;5118275;28;957;-43
2021/06/14 00:32:31;;;;;;;;;;;;;;;20.22;60.62;100469.91;5118357;28;800;-43
2021/06/14 00:34:58;;;;;;;;;;;;;;;20.08;60.69;100472.66;5118345;28;819;-42
2021/06/14 00:37:24;;;;;;;;;;;;;;;19.44;63.29;100464.88;5118277;28;752;-42
2021/06/14 00:39:49;;;;;;;;;;;;;;;19.48;62.63;100467.88;5125443;27;1170;-44
2021/06/14 00:42:15;;;;;;;;;;;;;;;19.31;59.29;100473.94;5138797;27;1969;-44
2021/06/14 00:44:40;;;;;;;;;;;;;;;19.48;59.02;100471.44;5130400;27;1113;-43
2021/06/14 00:47:06;;;;;;;;;;;;;;;19.94;61.62;100480.09;5116534;28;708;-43
2021/06/14 00:49:32;;;;;;;;;;;;;;;20.25;62.73;100471.25;5117155;28;1210;-43
2021/06/14 00:51:57;;;;;;;;;;;;;;;20.43;63.94;100475.84;5118012;28;732;-44
2021/06/14 00:54:23;;;;;;;;;;;;;;;20.57;63.19;100475.03;5118050;28;827;-44
2021/06/14 00:56:48;;;;;;;;;;;;;;;19.63;63.18;100469.56;5116952;28;1129;-43
2021/06/14 00:59:14;;;;;;;;;;;;;;;19.36;61.79;100473.84;5117416;28;969;-43
2021/06/14 01:01:41;;;;;;;;;;;;;;;19.27;58.96;100472.91;5116206;28;1176;-43
2021/06/14 01:04:07;;;;;;;;;;;;;;;19.61;60.90;100469.03;5116726;28;1921;-43
2021/06/14 01:06:32;;;;;;;;;;;;;;;20.24;60.16;100475.13;5117448;28;839;-44
2021/06/14 01:08:58;;;;;;;;;;;;;;;20.50;60.34;100479.00;5117036;28;843;-43
2021/06/14 01:11:29;;;;;;;;;;;;;;;20.75;60.61;100476.88;5116561;28;1131;-43
2021/06/14 01:13:57;;;;;;;;;;;;;;;20.32;61.41;100479.94;5116102;28;954;-44
2021/06/14 01:16:53;;;;;;;;;;;;;;;19.83;62.62;100488.53;5117297;28;775;-43
2021/06/14 01:19:25;;;;;;;;;;;;;;;19.73;61.82;100482.38;5113395;28;1315;-44
2021/06/14 01:22:06;;;;;;;;;;;;;;;19.51;58.40;100480.25;5117513;28;1913;-43
2021/06/14 01:24:49;;;;;;;;;;;;;;;19.49;57.42;100478.59;5117674;28;794;-43
2021/06/14 01:27:18;;;;;;;;;;;;;;;19.92;60.89;100490.59;5117211;28;806;-44
2021/06/14 01:29:45;;;;;;;;;;;;;;;20.31;62.12;100486.56;5116881;28;973;-43
2021/06/14 01:32:12;;;;;;;;;;;;;;;20.40;63.23;100484.75;5099645;28;1175;-43
2021/06/14 01:34:38;;;;;;;;;;;;;;;20.61;62.70;100484.34;5099030;28;1359;-43
2021/06/14 01:37:05;;;;;;;;;;;;;;;20.44;62.22;100480.25;5115887;28;822;-43
2021/06/14 01:39:32;;;;;;;;;;;;;;;20.60;60.55;100479.94;5122516;27;1212;-43
2021/06/14 01:41:58;;;;;;;;;;;;;;;20.02;60.45;100479.41;5136237;27;1980;-43
2021/06/14 01:44:23;;;;;;;;;;;;;;;19.56;61.26;100477.38;5132042;27;973;-44
2021/06/14 01:46:49;;;;;;;;;;;;;;;19.43;61.08;100482.56;5116020;28;1290;-44
2021/06/14 01:49:14;;;;;;;;;;;;;;;19.32;58.88;100481.06;5116837;28;858;-43
2021/06/14 01:51:44;;;;;;;;;;;;;;;19.82;61.37;100483.31;5117117;28;751;-43
2021/06/14 01:54:20;;;;;;;;;;;;;;;20.39;61.76;100485.06;5099945;28;1258;-43
2021/06/14 01:57:04;;;;;;;;;;;;;;;20.68;61.69;100485.56;5115729;28;688;-43
2021/06/14 01:59:55;;;;;;;;;;;;;;;19.93;64.13;100486.72;5115492;28;1416;-43
2021/06/14 02:02:43;;;;;;;;;;;;;;;19.81;64.81;100490.78;5116395;28;1969;-44
2021/06/14 02:05:36;;;;;;;;;;;;;;;19.53;60.66;100478.00;5115565;28;1489;-43
2021/06/14 02:08:01;;;;;;;;;;;;;;;19.39;57.89;100480.69;5116556;28;731;-43
2021/06/14 02:10:27;;;;;;;;;;;;;;;19.55;59.02;100473.00;5116428;28;759;-43
2021/06/14 02:12:54;;;;;;;;;;;;;;;20.08;60.74;100472.66;5099373;28;1096;-44
2021/06/14 02:15:20;;;;;;;;;;;;;;;20.27;62.54;100467.06;5116401;28;1016;-44
2021/06/14 02:17:46;;;;;;;;;;;;;;;20.47;63.45;100471.34;5115528;28;1108;-43
2021/06/14 02:20:12;;;;;;;;;;;;;;;20.82;63.63;100466.22;5119289;28;1195;-46
2021/06/14 02:22:42;;;;;;;;;;;;;;;20.33;64.07;100462.25;5120866;28;1918;-44
2021/06/14 02:25:08;;;;;;;;;;;;;;;19.77;65.93;100470.41;5120820;28;787;-43
2021/06/14 02:27:34;;;;;;;;;;;;;;;19.89;61.63;100469.94;5120778;28;739;-43
2021/06/14 02:30:06;;;;;;;;;;;;;;;19.86;57.29;100467.00;5120641;28;1005;-42
2021/06/14 02:32:31;;;;;;;;;;;;;;;19.67;56.07;100462.34;5120633;28;786;-43
2021/06/14 02:34:57;;;;;;;;;;;;;;;19.47;57.74;100469.00;5121023;28;771;-43
2021/06/14 02:37:23;;;;;;;;;;;;;;;19.38;57.30;100463.34;5120445;28;814;-44
2021/06/14 02:39:48;;;;;;;;;;;;;;;19.71;58.79;100459.78;5127679;27;1115;-43
2021/06/14 02:42:15;;;;;;;;;;;;;;;19.89;61.06;100466.38;5123088;27;1921;-44
2021/06/14 02:44:41;;;;;;;;;;;;;;;20.33;61.73;100474.09;5133009;27;958;-43
2021/06/14 02:47:08;;;;;;;;;;;;;;;20.58;62.44;100469.19;5119337;28;1212;-44
2021/06/14 02:49:33;;;;;;;;;;;;;;;20.38;62.43;100473.19;5120493;28;795;-43
2021/06/14 02:52:00;;;;;;;;;;;;;;;20.06;64.78;100485.91;5119965;28;795;-44
2021/06/14 02:54:27;;;;;;;;;;;;;;;19.98;65.88;100494.94;5119349;28;1215;-43
2021/06/14 02:56:54;;;;;;;;;;;;;;;19.92;62.89;100493.38;5120210;28;799;-45
2021/06/14 02:59:20;;;;;;;;;;;;;;;19.95;57.80;100498.28;5118576;28;1013;-43
2021/06/14 03:01:47;;;;;;;;;;;;;;;19.62;55.70;100496.31;5118909;28;1141;-66
2021/06/14 03:04:12;;;;;;;;;;;;;;;19.86;56.62;100491.84;5119982;28;1906;-41
2021/06/14 03:06:38;;;;;;;;;;;;;;;19.46;57.73;100501.28;5118933;28;778;-43
2021/06/14 03:09:05;;;;;;;;;;;;;;;19.64;57.19;100510.63;5119222;28;764;-41
2021/06/14 03:11:31;;;;;;;;;;;;;;;19.46;59.05;100506.78;5119733;28;762;-41
2021/06/14 03:14:03;;;;;;;;;;;;;;;19.59;60.13;100516.22;5118416;28;1537;-64
2021/06/14 03:16:31;;;;;;;;;;;;;;;19.36;60.99;100523.47;5119069;28;1136;-45
2021/06/14 03:18:57;;;;;;;;;;;;;;;19.36;61.38;100523.47;5118415;28;836;-66
2021/06/14 03:21:23;;;;;;;;;;;;;;;19.34;62.67;100524.91;5101504;28;952;-67
2021/06/14 03:23:50;;;;;;;;;;;;;;;19.47;61.08;100510.34;5118721;28;1982;-63
2021/06/14 03:26:16;;;;;;;;;;;;;;;19.45;60.89;100524.44;5118177;28;1214;-66
2021/06/14 03:28:41;;;;;;;;;;;;;;;19.51;61.23;100516.91;5118431;28;767;-67
2021/06/14 03:31:07;;;;;;;;;;;;;;;19.51;61.28;100514.16;5117397;28;986;-66
2021/06/14 03:33:32;;;;;;;;;;;;;;;19.54;61.00;100513.53;5118056;28;764;-41
2021/06/14 03:35:58;;;;;;;;;;;;;;;19.53;62.38;100516.59;5119447;28;870;-66
2021/06/14 03:38:23;;;;;;;;;;;;;;;19.56;62.44;100521.50;5119511;28;821;-63
2021/06/14 03:40:49;;;;;;;;;;;;;;;19.55;62.02;100520.72;5136487;27;1130;-42
2021/06/14 03:43:14;;;;;;;;;;;;;;;19.64;62.42;100524.44;5140065;27;1902;-53
2021/06/14 03:45:40;;;;;;;;;;;;;;;19.63;63.06;100516.47;5124558;27;964;-41
2021/06/14 03:48:05;;;;;;;;;;;;;;;19.72;62.34;100514.63;5119328;28;768;-67
2021/06/14 03:50:31;;;;;;;;;;;;;;;19.41;61.63;100514.31;5119556;28;747;-40
2021/06/14 03:52:56;;;;;;;;;;;;;;;19.28;63.93;100510.38;5117756;28;1378;-39
2021/06/14 03:55:22;;;;;;;;;;;;;;;19.37;63.38;100511.31;5118163;28;967;-42
2021/06/14 03:57:47;;;;;;;;;;;;;;;19.48;62.31;100507.28;5119157;28;779;-40
2021/06/14 04:00:13;;;;;;;;;;;;;;;19.32;63.93;100505.88;5119069;28;1001;-41
2021/06/14 04:02:39;;;;;;;;;;;;;;;19.36;63.02;100503.34;5118582;28;1909;-48
2021/06/14 04:05:05;;;;;;;;;;;;;;;19.24;62.75;100506.56;5119044;28;786;-41
2021/06/14 04:07:49;;;;;;;;;;;;;;;19.05;64.33;100512.88;5118729;28;621;-41
2021/06/14 04:10:14;;;;;;;;;;;;;;;19.06;64.42;100503.50;5118834;28;775;-43
2021/06/14 04:12:40;;;;;;;;;;;;;;;19.36;63.34;100501.41;5118836;28;816;-43
2021/06/14 04:15:06;;;;;;;;;;;;;;;19.61;63.29;100496.63;5126978;27;1055;-42
2021/06/14 04:17:32;;;;;;;;;;;;;;;19.67;63.04;100495.44;5137172;27;850;-42
2021/06/14 04:19:57;;;;;;;;;;;;;;;19.96;62.31;100497.16;5139854;27;807;-44
2021/06/14 04:22:23;;;;;;;;;;;;;;;19.79;63.65;100487.50;5137411;27;1966;-42
2021/06/14 04:24:48;;;;;;;;;;;;;;;19.64;63.87;100491.34;5139041;27;783;-42
2021/06/14 04:27:14;;;;;;;;;;;;;;;19.53;63.56;100489.03;5138708;27;759;-43
2021/06/14 04:29:39;;;;;;;;;;;;;;;19.99;62.97;100494.63;5133622;27;941;-42
2021/06/14 04:32:05;;;;;;;;;;;;;;;19.87;63.60;100493.47;5118810;28;750;-42
2021/06/14 04:34:31;;;;;;;;;;;;;;;19.92;63.66;100488.69;5136699;27;1276;-41
2021/06/14 04:36:56;;;;;;;;;;;;;;;19.76;64.28;100492.78;5137117;27;855;-43
2021/06/14 04:39:22;;;;;;;;;;;;;;;20.09;63.63;100490.84;5138977;27;763;-43
2021/06/14 04:41:47;;;;;;;;;;;;;;;20.07;62.90;100487.56;5138062;27;794;-43
2021/06/14 04:44:13;;;;;;;;;;;;;;;19.96;62.09;100495.25;5136682;27;1972;-44
2021/06/14 04:46:38;;;;;;;;;;;;;;;20.11;62.56;100490.56;5117759;28;838;-42
2021/06/14 04:49:04;;;;;;;;;;;;;;;20.09;62.81;100490.84;5118186;28;778;-43
2021/06/14 04:51:29;;;;;;;;;;;;;;;20.33;61.69;100484.34;5117371;28;794;-45
2021/06/14 04:53:55;;;;;;;;;;;;;;;20.09;61.75;100487.25;5118304;28;779;-43
2021/06/14 04:56:20;;;;;;;;;;;;;;;20.08;62.42;100489.22;5117510;28;751;-44
2021/06/14 04:58:46;;;;;;;;;;;;;;;20.16;62.62;100480.22;5117385;28;814;-42
2021/06/14 05:01:11;;;;;;;;;;;;;;;20.13;61.78;100489.13;5117154;28;1128;-44
2021/06/14 05:03:36;;;;;;;;;;;;;;;19.83;61.65;100487.72;5117546;28;1969;-45
2021/06/14 05:06:02;;;;;;;;;;;;;;;19.98;63.08;100492.97;5117678;28;731;-44
2021/06/14 05:08:27;;;;;;;;;;;;;;;19.59;63.77;100494.16;5117459;28;767;-44
2021/06/14 05:10:53;;;;;;;;;;;;;;;19.82;63.85;100499.88;5134650;27;1134;-60
2021/06/14 05:13:18;;;;;;;;;;;;;;;20.12;61.95;100506.81;5138106;27;803;-45
2021/06/14 05:15:44;;;;;;;;;;;;;;;20.11;61.56;100491.34;5123558;27;944;-44
2021/06/14 05:18:09;;;;;;;;;;;;;;;19.93;63.06;100497.78;5117153;28;858;-45
2021/06/14 05:20:35;;;;;;;;;;;;;;;20.19;62.45;100498.13;5117451;28;775;-42
2021/06/14 05:23:02;;;;;;;;;;;;;;;20.25;62.49;100493.34;5117170;28;1913;-43
2021/06/14 05:25:27;;;;;;;;;;;;;;;19.97;63.53;100504.31;5117098;28;740;-44
2021/06/14 05:27:53;;;;;;;;;;;;;;;20.10;63.16;100505.47;5117091;28;752;-45
2021/06/14 05:30:18;;;;;;;;;;;;;;;20.22;62.79;100502.22;5116356;28;961;-42
2021/06/14 05:32:44;;;;;;;;;;;;;;;20.29;62.48;100491.59;5117781;28;798;-42
2021/06/14 05:35:10;;;;;;;;;;;;;;;20.26;62.79;100494.94;5117116;28;850;-41
2021/06/14 05:37:35;;;;;;;;;;;;;;;20.28;62.92;100501.00;5116397;28;999;-43
2021/06/14 05:40:01;;;;;;;;;;;;;;;20.42;62.74;100503.78;5115440;28;957;-42
2021/06/14 05:42:26;;;;;;;;;;;;;;;20.30;63.52;100495.97;5117058;28;1905;-42
2021/06/14 05:44:52;;;;;;;;;;;;;;;20.58;62.46;100491.28;5121888;27;1092;-47
2021/06/14 05:47:17;;;;;;;;;;;;;;;20.38;62.24;100498.03;5137778;27;866;-41
2021/06/14 05:49:42;;;;;;;;;;;;;;;20.59;60.60;100492.09;5137570;27;811;-42
2021/06/14 05:52:08;;;;;;;;;;;;;;;20.31;61.33;100495.69;5136933;27;811;-42
2021/06/14 05:54:33;;;;;;;;;;;;;;;20.48;60.97;100486.78;5137164;27;830;-44
2021/06/14 05:56:59;;;;;;;;;;;;;;;20.25;61.56;100487.81;5137244;27;759;-43
2021/06/14 05:59:24;;;;;;;;;;;;;;;20.42;60.68;100485.25;5132827;27;998;-43
2021/06/14 06:01:50;;;;;;;;;;;;;;;20.71;59.99;100477.81;5117044;28;989;-43
2021/06/14 06:04:17;;;;;;;;;;;;;;;20.55;60.34;100468.97;5115960;28;1906;-42
2021/06/14 06:06:42;;;;;;;;;;;;;;;20.39;61.34;100477.59;5116175;28;854;-43
2021/06/14 06:09:08;;;;;;;;;;;;;;;20.20;61.35;100479.63;5117704;28;1130;-66
2021/06/14 06:11:33;;;;;;;;;;;;;;;20.01;64.12;100477.75;5137157;28;759;-46
2021/06/14 06:13:59;;;;;;;;;;;;;;;20.24;63.64;100475.94;5136801;28;517;-43
2021/06/14 06:16:24;;;;;;;;;;;;;;;20.35;62.10;100487.59;5117296;28;964;-43
2021/06/14 06:18:50;;;;;;;;;;;;;;;20.64;58.17;100483.72;5120711;28;1102;-42
2021/06/14 06:21:15;;;;;;;;;;;;;;;20.36;58.26;100480.97;5136797;28;724;-42
2021/06/14 06:23:41;;;;;;;;;;;;;;;20.62;58.56;100485.94;5137124;28;1918;-44
2021/06/14 06:26:06;;;;;;;;;;;;;;;20.65;60.10;100496.38;5135175;28;810;-44
2021/06/14 06:28:32;;;;;;;;;;;;;;;20.51;62.11;100486.19;5136830;28;826;-43
2021/06/14 06:30:57;;;;;;;;;;;;;;;20.66;62.43;100495.25;5121297;28;1020;-42
2021/06/14 06:33:22;;;;;;;;;;;;;;;20.45;62.80;100487.38;5116270;28;755;-42
2021/06/14 06:35:48;;;;;;;;;;;;;;;20.44;60.96;100485.78;5116017;28;827;-43
2021/06/14 06:38:13;;;;;;;;;;;;;;;20.68;57.29;100480.06;5116207;28;827;-43
2021/06/14 06:40:39;;;;;;;;;;;;;;;20.55;56.12;100480.03;5116242;28;807;-43
2021/06/14 06:43:04;;;;;;;;;;;;;;;20.45;58.29;100481.06;5116321;28;1896;-41
2021/06/14 06:45:30;;;;;;;;;;;;;;;20.74;59.46;100472.47;5115973;28;965;-41
2021/06/14 06:47:55;;;;;;;;;;;;;;;20.58;61.56;100479.41;5116398;28;740;-41
2021/06/14 06:50:21;;;;;;;;;;;;;;;20.71;62.13;100475.84;5115795;28;819;-41
2021/06/14 06:52:46;;;;;;;;;;;;;;;20.68;62.66;100484.78;5115648;28;1108;-68
2021/06/14 06:55:12;;;;;;;;;;;;;;;20.51;63.02;100486.19;5116436;28;763;-43
2021/06/14 06:57:38;;;;;;;;;;;;;;;20.43;62.92;100484.13;5115848;28;850;-60
2021/06/14 07:00:04;;;;;;;;;;;;;;;20.44;61.72;100474.72;5116080;28;961;-40
2021/06/14 07:02:30;;;;;;;;;;;;;;;20.71;59.51;100483.34;5115999;28;1917;-43
2021/06/14 07:04:55;;;;;;;;;;;;;;;20.58;59.14;100487.69;5115906;28;763;-61
2021/06/14 07:07:21;;;;;;;;;;;;;;;20.48;59.76;100492.31;5119649;28;763;-44
2021/06/14 07:09:46;;;;;;;;;;;;;;;20.77;59.39;100499.47;5127777;27;1102;-43
2021/06/14 07:12:11;;;;;;;;;;;;;;;20.24;62.68;100488.94;5140149;27;782;-42
2021/06/14 07:14:37;;;;;;;;;;;;;;;20.57;62.71;100492.41;5135933;27;1012;-42
2021/06/14 07:17:02;;;;;;;;;;;;;;;20.44;63.11;100499.59;5119842;28;767;-42
2021/06/14 07:19:28;;;;;;;;;;;;;;;20.43;62.73;100500.69;5119265;28;846;-42
2021/06/14 07:21:55;;;;;;;;;;;;;;;20.40;62.05;100506.84;5119524;28;766;-44
2021/06/14 07:24:20;;;;;;;;;;;;;;;20.79;59.40;100497.25;5119878;28;1902;-65
2021/06/14 07:26:46;;;;;;;;;;;;;;;20.71;58.50;100497.97;5120119;28;831;-42
2021/06/14 07:29:11;;;;;;;;;;;;;;;20.66;58.38;100503.56;5118866;28;1020;-44
2021/06/14 07:31:37;;;;;;;;;;;;;;;20.57;59.43;100499.88;5119531;28;859;-69
2021/06/14 07:34:02;;;;;;;;;;;;;;;20.50;60.71;100494.78;5119318;28;783;-44
2021/06/14 07:36:28;;;;;;;;;;;;;;;20.88;60.41;100494.56;5119215;28;831;-44
2021/06/14 07:38:54;;;;;;;;;;;;;;;20.57;61.58;100502.66;5118085;28;1150;-46
2021/06/14 07:41:19;;;;;;;;;;;;;;;20.67;61.73;100500.50;5119493;28;480;-43
2021/06/14 07:43:45;;;;;;;;;;;;;;;20.68;61.70;100501.34;5118829;28;1973;-43
2021/06/14 07:46:10;;;;;;;;;;;;;;;20.59;61.52;100500.38;5118737;28;1012;-45
2021/06/14 07:48:36;;;;;;;;;;;;;;;20.67;60.31;100505.19;5119427;28;712;-44
2021/06/14 07:51:01;;;;;;;;;;;;;;;20.43;59.75;100495.19;5118370;28;863;-42
2021/06/14 07:53:27;;;;;;;;;;;;;;;20.29;60.44;100491.59;5119228;28;767;-43
2021/06/14 07:55:53;;;;;;;;;;;;;;;20.40;61.66;100486.66;5119097;28;799;-42
2021/06/14 07:58:18;;;;;;;;;;;;;;;20.42;62.53;100489.97;5118660;28;872;-43
2021/06/14 08:00:44;;;;;;;;;;;;;;;20.54;61.91;100483.91;5118481;28;1017;-45
2021/06/14 08:03:10;;;;;;;;;;;;;;;20.60;59.80;100483.50;5118774;28;1984;-43
2021/06/14 08:05:35;;;;;;;;;;;;;;;20.94;56.55;100484.22;5118390;28;752;-44
2021/06/14 08:08:01;;;;;;;;;;;;;;;20.38;57.43;100481.47;5118984;28;910;-40
2021/06/14 08:10:27;;;;;;;;;;;;;;;20.27;59.75;100483.63;5132095;27;1134;-43
2021/06/14 08:12:52;;;;;;;;;;;;;;;20.03;61.04;100481.03;5138959;27;759;-50
2021/06/14 08:15:18;;;;;;;;;;;;;;;20.23;62.31;100492.81;5129024;27;1084;-43
2021/06/14 08:17:43;;;;;;;;;;;;;;;20.32;63.17;100493.75;5118665;28;803;-42
2021/06/14 08:20:15;;;;;;;;;;;;;;;20.42;62.71;100493.53;5118364;28;763;-42
2021/06/14 08:25:15;;;;;;;;;;;;;;;20.77;57.12;100479.31;5126686;27;1118;-43
2021/06/14 08:27:41;;;;;;;;;;;;;;;20.66;55.66;100482.28;5138993;27;779;-43
2021/06/14 08:30:08;;;;;;;;;;;;;;;20.55;57.50;100483.59;5129955;27;1040;-65
2021/06/14 08:32:33;;;;;;;;;;;;;;;20.46;60.16;100485.47;5116923;28;767;-44
2021/06/14 08:34:59;;;;;;;;;;;;;;;20.62;61.02;100486.78;5116560;28;907;-63
2021/06/14 08:37:24;;;;;;;;;;;;;;;20.71;61.34;100478.63;5118296;28;779;-43
2021/06/14 08:39:50;;;;;;;;;;;;;;;20.51;60.67;100486.19;5117937;28;767;-63
2021/06/14 08:42:15;;;;;;;;;;;;;;;20.35;58.62;100479.31;5117723;28;1968;-43
2021/06/14 08:44:41;;;;;;;;;;;;;;;20.42;55.74;100488.00;5117665;28;1128;-43
2021/06/14 08:47:06;;;;;;;;;;;;;;;20.55;57.52;100491.88;5117901;28;853;-43
2021/06/14 08:49:32;;;;;;;;;;;;;;;20.25;60.87;100485.03;5116366;28;898;-43
2021/06/14 08:51:58;;;;;;;;;;;;;;;20.42;61.58;100488.00;5117014;28;882;-44
2021/06/14 08:54:23;;;;;;;;;;;;;;;20.56;60.43;100496.28;5116812;28;1211;-52
2021/06/14 08:56:49;;;;;;;;;;;;;;;20.93;58.04;100497.22;5115998;28;917;-43
2021/06/14 08:59:14;;;;;;;;;;;;;;;20.70;57.93;100504.59;5117673;28;961;-43
2021/06/14 09:01:40;;;;;;;;;;;;;;;20.44;57.97;100493.22;5117626;28;1086;-43
2021/06/14 09:04:05;;;;;;;;;;;;;;;20.40;57.56;100501.31;5117368;28;1906;-43
2021/06/14 09:06:31;;;;;;;;;;;;;;;20.40;58.37;100495.78;5117359;28;802;-43
2021/06/14 09:08:57;;;;;;;;;;;;;;;20.25;60.75;100496.09;5118603;27;1213;-66
2021/06/14 09:11:23;;;;;;;;;;;;;;;20.40;60.93;100497.72;5137703;27;874;-44
2021/06/14 09:13:49;;;;;;;;;;;;;;;19.82;61.37;100497.97;5136879;27;1086;-46
2021/06/14 09:16:15;;;;;;;;;;;;;;;19.97;61.24;100491.34;5119937;27;953;-43
2021/06/14 09:18:41;;;;;;;;;;;;;;;20.36;60.83;100494.75;5117127;28;790;-43
2021/06/14 09:21:08;;;;;;;;;;;;;;;20.17;62.22;100492.09;5117072;28;905;-43
2021/06/14 09:23:41;;;;;;;;;;;;;;;20.40;61.78;100495.78;5117703;28;1906;-43
2021/06/14 09:26:07;;;;;;;;;;;;;;;20.27;61.61;100488.31;5116923;28;767;-43
2021/06/14 09:28:32;;;;;;;;;;;;;;;20.25;60.37;100494.13;5116539;28;838;-42
2021/06/14 09:30:59;;;;;;;;;;;;;;;20.65;58.41;100499.16;5116664;28;1024;-45
2021/06/14 09:33:25;;;;;;;;;;;;;;;20.51;58.21;100493.66;5116716;28;851;-43
2021/06/14 09:35:51;;;;;;;;;;;;;;;20.47;59.51;100503.69;5117285;28;755;-42
2021/06/14 09:38:17;;;;;;;;;;;;;;;20.32;61.36;100500.06;5115916;28;807;-42
2021/06/14 09:40:43;;;;;;;;;;;;;;;20.32;62.02;100496.50;5116600;28;839;-42
2021/06/14 09:43:19;;;;;;;;;;;;;;;20.42;61.42;100501.81;5116941;28;1910;-42
2021/06/14 09:45:45;;;;;;;;;;;;;;;20.44;60.42;100494.06;5116501;28;1012;-43
2021/06/14 09:48:16;;;;;;;;;;;;;;;20.71;59.62;100492.44;5116642;28;782;-42
2021/06/14 09:50:42;;;;;;;;;;;;;;;20.52;60.11;100492.50;5116846;28;751;-43
2021/06/14 09:53:07;;;;;;;;;;;;;;;20.31;60.81;100498.47;5116997;28;811;-42
2021/06/14 09:55:33;;;;;;;;;;;;;;;20.47;60.36;100496.19;5116507;28;760;-43
2021/06/14 09:58:08;;;;;;;;;;;;;;;20.35;60.82;100501.41;5115802;28;2050;-47
2021/06/14 10:00:37;;;;;;;;;;;;;;;20.40;60.56;100501.31;5116266;28;1016;-44
2021/06/14 10:03:02;;;;;;;;;;;;;;;20.45;60.35;100484.63;5114743;28;1980;-64
2021/06/14 10:05:28;;;;;;;;;;;;;;;20.59;60.13;100486.56;5116752;28;815;-43
2021/06/14 10:07:56;;;;;;;;;;;;;;;20.42;60.34;100482.47;5117086;28;827;-43
2021/06/14 10:10:39;;;;;;;;;;;;;;;20.48;60.63;100480.44;5130161;28;1138;-43
2021/06/14 10:13:04;;;;;;;;;;;;;;;20.63;60.65;100476.53;5137180;28;755;-43
2021/06/14 10:15:32;;;;;;;;;;;;;;;20.29;61.42;100486.88;5124839;28;961;-42
2021/06/14 10:17:58;;;;;;;;;;;;;;;20.57;60.14;100494.38;5116209;28;763;-60
2021/06/14 10:20:24;;;;;;;;;;;;;;;20.61;59.20;100495.38;5116609;28;806;-49
2021/06/14 10:22:50;;;;;;;;;;;;;;;20.44;59.84;100501.50;5116201;28;1922;-43
2021/06/14 10:25:16;;;;;;;;;;;;;;;20.23;60.70;100492.81;5116113;28;759;-44
2021/06/14 10:27:41;;;;;;;;;;;;;;;20.38;60.36;100498.03;5116505;28;828;-43
2021/06/14 10:30:08;;;;;;;;;;;;;;;20.37;60.71;100504.69;5116216;28;946;-43
2021/06/14 10:32:34;;;;;;;;;;;;;;;20.18;61.08;100493.72;5116241;28;775;-46
2021/06/14 10:35:00;;;;;;;;;;;;;;;20.29;61.14;100483.31;5116271;28;728;-43
2021/06/14 10:37:25;;;;;;;;;;;;;;;20.47;60.40;100489.88;5115309;28;862;-61
2021/06/14 10:39:54;;;;;;;;;;;;;;;20.58;60.07;100484.94;5117456;28;858;-42
2021/06/14 10:42:20;;;;;;;;;;;;;;;20.47;60.66;100485.16;5120033;28;1987;-43
2021/06/14 10:44:45;;;;;;;;;;;;;;;20.42;61.37;100485.25;5120387;28;1164;-44
2021/06/14 10:47:11;;;;;;;;;;;;;;;20.35;61.35;100482.88;5120003;28;819;-44
2021/06/14 10:49:36;;;;;;;;;;;;;;;20.75;59.22;100484.31;5120340;28;858;-43
2021/06/14 10:52:04;;;;;;;;;;;;;;;20.29;59.51;100489.66;5118731;28;1017;-43
2021/06/14 10:54:40;;;;;;;;;;;;;;;20.50;59.44;100484.53;5119892;28;806;-44
2021/06/14 10:57:07;;;;;;;;;;;;;;;20.42;60.67;100487.19;5120690;28;838;-43
2021/06/14 10:59:36;;;;;;;;;;;;;;;20.27;61.67;100482.78;5120117;28;958;-53
2021/06/14 11:02:05;;;;;;;;;;;;;;;20.41;60.71;100491.91;5119723;28;1180;-45
2021/06/14 11:04:31;;;;;;;;;;;;;;;20.39;59.28;100482.28;5120196;28;1906;-63
2021/06/14 11:06:57;;;;;;;;;;;;;;;20.34;58.26;100491.47;5137713;27;1102;-45
2021/06/14 11:09:23;;;;;;;;;;;;;;;20.46;57.95;100494.56;5140023;27;1075;-44
2021/06/14 11:11:52;;;;;;;;;;;;;;;20.16;58.57;100493.19;5139211;27;902;-44
2021/06/14 11:14:27;;;;;;;;;;;;;;;20.69;57.84;100486.38;5137605;27;1891;-43
2021/06/14 11:16:53;;;;;;;;;;;;;;;20.08;60.28;100483.69;5119237;28;803;-43
2021/06/14 11:19:18;;;;;;;;;;;;;;;20.13;62.02;100486.38;5138222;27;1111;-61
2021/06/14 11:21:53;;;;;;;;;;;;;;;20.28;60.69;100481.66;5140400;27;807;-42
2021/06/14 11:24:18;;;;;;;;;;;;;;;20.05;59.79;100481.53;5139496;27;1975;-61
2021/06/14 11:26:44;;;;;;;;;;;;;;;20.14;57.20;100481.66;5140515;27;775;-43
2021/06/14 11:29:10;;;;;;;;;;;;;;;20.42;55.79;100482.47;5138559;27;1325;-43
2021/06/14 11:31:36;;;;;;;;;;;;;;;20.58;58.58;100482.16;5139966;27;778;-45
2021/06/14 11:34:02;;;;;;;;;;;;;;;20.43;60.73;100475.84;5140067;27;744;-45
2021/06/14 11:36:31;;;;;;;;;;;;;;;20.61;60.39;100467.75;5139940;27;755;-61
2021/06/14 11:38:57;;;;;;;;;;;;;;;20.76;59.01;100472.16;5139541;27;735;-44
2021/06/14 11:41:40;;;;;;;;;;;;;;;20.76;57.64;100472.16;5139921;27;885;-43
2021/06/14 11:44:25;;;;;;;;;;;;;;;20.63;57.43;100465.50;5138543;27;1914;-43
2021/06/14 11:46:51;;;;;;;;;;;;;;;20.51;57.62;100469.59;5139445;27;779;-42
2021/06/14 11:49:17;;;;;;;;;;;;;;;20.58;56.91;100451.78;5140086;27;847;-42
2021/06/14 11:51:42;;;;;;;;;;;;;;;20.59;56.82;100470.00;5139235;27;735;-42
2021/06/14 11:54:08;;;;;;;;;;;;;;;20.66;57.67;100464.88;5139256;27;751;-42
2021/06/14 11:56:36;;;;;;;;;;;;;;;20.42;59.61;100463.16;5139609;27;779;-42
2021/06/14 11:59:01;;;;;;;;;;;;;;;20.65;58.83;100452.19;5139746;27;763;-42
2021/06/14 12:01:27;;;;;;;;;;;;;;;20.44;57.62;100460.06;5119221;27;1044;-42
2021/06/14 12:03:53;;;;;;;;;;;;;;;20.28;57.30;100456.81;5118629;28;1917;-42
2021/06/14 12:06:22;;;;;;;;;;;;;;;20.38;58.53;100464.09;5118812;28;775;-42
2021/06/14 12:08:47;;;;;;;;;;;;;;;20.29;59.67;100467.56;5119007;28;731;-42
2021/06/14 12:11:13;;;;;;;;;;;;;;;20.36;59.09;100472.69;5138705;27;1276;-42
2021/06/14 12:13:38;;;;;;;;;;;;;;;20.13;57.52;100467.03;5139354;27;843;-42
2021/06/14 12:16:04;;;;;;;;;;;;;;;20.51;57.63;100466.84;5122238;27;1020;-41
2021/06/14 12:18:29;;;;;;;;;;;;;;;19.92;60.58;100474.03;5117366;28;1305;-42
2021/06/14 12:20:55;;;;;;;;;;;;;;;19.91;62.11;100472.41;5118646;28;919;-42
2021/06/14 12:23:20;;;;;;;;;;;;;;;20.15;62.08;100464.78;5117912;28;1969;-42
2021/06/14 12:25:47;;;;;;;;;;;;;;;20.33;61.65;100474.09;5118329;28;830;-42
2021/06/14 12:28:16;;;;;;;;;;;;;;;20.41;60.27;100469.81;5118570;28;570;-42
2021/06/14 12:30:46;;;;;;;;;;;;;;;20.55;58.75;100474.50;5117914;28;1020;-42
2021/06/14 12:33:22;;;;;;;;;;;;;;;20.29;58.59;100472.28;5118541;28;729;-42
2021/06/14 12:35:50;;;;;;;;;;;;;;;20.26;58.07;100467.34;5118384;28;826;-42
2021/06/14 12:38:15;;;;;;;;;;;;;;;20.18;58.61;100466.13;5118341;28;739;-42
2021/06/14 12:40:41;;;;;;;;;;;;;;;20.26;60.14;100468.19;5118361;28;794;-42
2021/06/14 12:43:07;;;;;;;;;;;;;;;20.44;60.22;100462.84;5118129;28;1914;-42
2021/06/14 12:45:33;;;;;;;;;;;;;;;20.21;60.47;100459.16;5117021;28;969;-42
2021/06/14 12:47:58;;;;;;;;;;;;;;;20.29;58.06;100462.03;5117928;28;795;-66
2021/06/14 12:50:28;;;;;;;;;;;;;;;20.16;57.56;100465.59;5118178;28;823;-42
2021/06/14 12:52:54;;;;;;;;;;;;;;;20.37;58.98;100468.81;5117967;28;755;-42